createdAt,value
2023-03-28T00:00:32.982Z,3.70
2023-03-28T00:02:59.764Z,3.70
2023-03-28T00:05:26.573Z,4.97
2023-03-28T00:07:54.987Z,3.85
2023-03-28T00:10:21.936Z,3.45
2023-03-28T00:12:48.800Z,5.00
2023-03-28T00:15:15.580Z,4.18
2023-03-28T00:17:42.391Z,3.17
2023-03-28T00:20:11.125Z,3.40
2023-03-28T00:22:37.844Z,4.03
2023-03-28T00:25:06.594Z,4.88
2023-03-28T00:27:33.893Z,3.47
2023-03-28T00:30:00.773Z,5.28
2023-03-28T00:32:27.719Z,3.80
2023-03-28T00:34:54.528Z,3.90
2023-03-28T00:37:21.307Z,3.50
2023-03-28T00:39:48.155Z,4.28
2023-03-28T00:42:16.520Z,3.13
2023-03-28T00:44:48.916Z,4.90
2023-03-28T00:47:39.687Z,5.57
2023-03-28T00:50:13.150Z,3.15
2023-03-28T00:52:45.080Z,3.25
2023-03-28T00:55:18.665Z,4.45
2023-03-28T00:57:49.032Z,3.20
2023-03-28T01:00:17.278Z,4.28
2023-03-28T01:02:46.979Z,2.75
2023-03-28T01:05:13.967Z,3.58
2023-03-28T01:07:45.991Z,3.72
2023-03-28T01:10:13.049Z,4.53
2023-03-28T01:12:41.954Z,5.20
2023-03-28T01:15:11.248Z,3.58
2023-03-28T01:17:38.228Z,5.13
2023-03-28T01:20:22.954Z,3.75
2023-03-28T01:23:22.181Z,5.32
2023-03-28T01:26:21.129Z,4.05
2023-03-28T01:29:20.537Z,8.05
2023-03-28T01:32:13.298Z,5.00
2023-03-28T01:34:56.778Z,4.43
2023-03-28T01:37:43.968Z,7.80
2023-03-28T01:40:27.109Z,4.95
2023-03-28T01:43:08.117Z,4.38
2023-03-28T01:45:45.853Z,5.88
2023-03-28T01:48:20.847Z,4.43
2023-03-28T01:50:51.917Z,5.60
2023-03-28T01:53:23.963Z,5.82
2023-03-28T01:55:58.422Z,4.50
2023-03-28T01:58:35.391Z,6.32
2023-03-28T02:01:04.942Z,5.38
2023-03-28T02:03:34.679Z,8.52
2023-03-28T02:06:05.452Z,5.15
2023-03-28T02:08:36.969Z,5.63
2023-03-28T02:11:04.332Z,6.97
2023-03-28T02:13:36.006Z,7.85
2023-03-28T02:16:04.399Z,4.30
2023-03-28T02:18:34.868Z,8.55
2023-03-28T02:21:06.164Z,8.25
2023-03-28T02:23:38.243Z,8.40
2023-03-28T02:26:05.859Z,5.97
2023-03-28T02:28:34.232Z,11.57
2023-03-28T02:31:01.033Z,7.60
2023-03-28T02:33:39.886Z,7.30
2023-03-28T02:36:27.648Z,6.03
2023-03-28T02:39:14.643Z,5.50
2023-03-28T02:41:56.761Z,10.65
2023-03-28T02:44:38.144Z,6.53
2023-03-28T02:47:16.593Z,4.68
2023-03-28T02:49:54.445Z,6.47
2023-03-28T02:52:30.087Z,6.15
2023-03-28T02:55:00.509Z,8.50
2023-03-28T02:57:32.597Z,11.57
2023-03-28T03:00:03.098Z,6.25
2023-03-28T03:02:30.192Z,5.95
2023-03-28T03:04:56.951Z,9.18
2023-03-28T03:07:24.277Z,7.88
2023-03-28T03:09:51.020Z,7.63
2023-03-28T03:12:19.311Z,6.60
2023-03-28T03:14:46.185Z,6.22
2023-03-28T03:17:12.976Z,12.10
2023-03-28T03:19:41.450Z,7.70
2023-03-28T03:22:09.674Z,10.80
2023-03-28T03:24:47.758Z,8.93
2023-03-28T03:27:14.511Z,7.72
2023-03-28T03:29:42.735Z,8.80
2023-03-28T03:32:09.548Z,7.25
2023-03-28T03:34:36.349Z,6.25
2023-03-28T03:37:03.345Z,6.53
2023-03-28T03:39:30.322Z,6.85
2023-03-28T03:41:57.124Z,7.90
2023-03-28T03:44:24.040Z,7.40
2023-03-28T03:46:52.175Z,6.35
2023-03-28T03:49:18.944Z,7.63
2023-03-28T03:51:45.699Z,7.00
2023-03-28T03:54:12.460Z,8.02
2023-03-28T03:56:39.253Z,7.65
2023-03-28T03:59:06.304Z,5.93
2023-03-28T04:01:33.554Z,7.40
2023-03-28T04:04:01.775Z,8.68
2023-03-28T04:06:28.629Z,7.03
2023-03-28T04:08:55.453Z,9.07
2023-03-28T04:11:22.295Z,5.93
2023-03-28T04:13:49.094Z,6.13
2023-03-28T04:16:15.961Z,7.97
2023-03-28T04:18:43.083Z,7.28
2023-03-28T04:21:11.552Z,8.35
2023-03-28T04:23:38.522Z,8.88
2023-03-28T04:26:05.700Z,6.63
2023-03-28T04:28:32.515Z,6.38
2023-03-28T04:30:59.388Z,8.75
2023-03-28T04:33:27.509Z,9.38
2023-03-28T04:35:55.375Z,7.57
2023-03-28T04:38:24.000Z,9.95
2023-03-28T04:40:50.844Z,8.30
2023-03-28T04:43:17.679Z,9.65
2023-03-28T04:45:45.007Z,8.20
2023-03-28T04:48:11.797Z,9.80
2023-03-28T04:50:38.563Z,7.93
2023-03-28T04:53:05.367Z,7.75
2023-03-28T04:55:33.491Z,7.85
2023-03-28T04:58:00.325Z,9.52
2023-03-28T05:00:27.353Z,7.82
2023-03-28T05:02:54.740Z,7.55
2023-03-28T05:05:21.869Z,7.47
2023-03-28T05:07:48.776Z,7.85
2023-03-28T05:10:15.650Z,7.15
2023-03-28T05:12:44.144Z,8.57
2023-03-28T05:15:11.492Z,7.13
2023-03-28T05:17:48.188Z,9.73
2023-03-28T05:20:15.173Z,8.45
2023-03-28T05:22:42.162Z,11.45
2023-03-28T05:25:09.961Z,9.80
2023-03-28T05:27:36.783Z,7.15
2023-03-28T05:30:05.857Z,9.63
2023-03-28T05:32:32.855Z,6.18
2023-03-28T05:34:59.643Z,9.27
2023-03-28T05:37:28.510Z,7.82
2023-03-28T05:39:55.581Z,8.60
2023-03-28T05:42:22.414Z,7.47
2023-03-28T05:44:49.157Z,10.77
2023-03-28T05:47:17.602Z,7.80
2023-03-28T05:49:44.370Z,10.52
2023-03-28T05:52:11.139Z,10.80
2023-03-28T05:54:37.935Z,7.75
2023-03-28T05:57:04.720Z,9.02
2023-03-28T05:59:31.585Z,8.85
2023-03-28T06:01:58.717Z,8.88
2023-03-28T06:04:27.111Z,12.57
2023-03-28T06:06:54.060Z,7.38
2023-03-28T06:09:20.877Z,9.30
2023-03-28T06:11:47.637Z,7.30
2023-03-28T06:14:14.493Z,4.55
2023-03-28T06:16:41.362Z,7.32
2023-03-28T06:19:17.701Z,8.45
2023-03-28T06:21:46.901Z,8.10
2023-03-28T06:24:13.876Z,7.78
2023-03-28T06:26:40.695Z,7.78
2023-03-28T06:29:07.518Z,7.85
2023-03-28T06:31:34.899Z,8.63
2023-03-28T06:34:01.716Z,10.00
2023-03-28T06:36:28.702Z,6.93
2023-03-28T06:38:56.803Z,7.25
2023-03-28T06:41:23.716Z,8.50
2023-03-28T06:43:50.590Z,7.32
2023-03-28T06:46:17.440Z,8.23
2023-03-28T06:48:44.414Z,6.15
2023-03-28T06:51:11.186Z,5.03
2023-03-28T06:53:37.968Z,10.98
2023-03-28T06:56:07.623Z,9.80
2023-03-28T06:58:34.431Z,6.85
2023-03-28T07:01:01.641Z,7.93
2023-03-28T07:03:28.819Z,9.38
2023-03-28T07:05:56.192Z,8.20
2023-03-28T07:08:22.943Z,6.10
2023-03-28T07:10:50.033Z,10.05
2023-03-28T07:13:18.150Z,6.63
2023-03-28T07:15:44.880Z,6.60
2023-03-28T07:18:11.760Z,9.13
2023-03-28T07:20:39.399Z,6.30
2023-03-28T07:23:06.318Z,11.43
2023-03-28T07:25:33.342Z,10.30
2023-03-28T07:28:00.294Z,5.38
2023-03-28T07:30:28.508Z,5.82
2023-03-28T07:33:07.118Z,9.32
2023-03-28T07:35:39.943Z,7.93
2023-03-28T07:38:06.812Z,8.27
2023-03-28T07:40:33.877Z,6.80
2023-03-28T07:43:00.746Z,6.68
2023-03-28T07:45:29.092Z,7.30
2023-03-28T07:47:56.000Z,6.35
2023-03-28T07:50:24.748Z,7.22
2023-03-28T07:52:52.076Z,5.20
2023-03-28T07:55:18.903Z,4.80
2023-03-28T07:57:45.759Z,5.07
2023-03-28T08:00:13.356Z,7.88
2023-03-28T08:02:44.215Z,7.53
2023-03-28T08:05:11.904Z,4.30
2023-03-28T08:07:38.890Z,6.13
2023-03-28T08:10:07.121Z,6.40
2023-03-28T08:12:34.008Z,6.93
2023-03-28T08:15:00.903Z,5.47
2023-03-28T08:17:27.820Z,6.72
2023-03-28T08:19:56.027Z,4.32
2023-03-28T08:22:22.876Z,5.68
2023-03-28T08:24:49.721Z,7.72
2023-03-28T08:27:16.514Z,7.13
2023-03-28T08:29:43.466Z,5.78
2023-03-28T08:32:10.291Z,4.75
2023-03-28T08:34:37.298Z,2.70
2023-03-28T08:37:05.441Z,3.60
2023-03-28T08:39:32.368Z,4.18
2023-03-28T08:42:33.043Z,4.93
2023-03-28T08:45:15.308Z,6.40
2023-03-28T08:47:52.847Z,3.55
2023-03-28T08:50:25.291Z,7.95
2023-03-28T08:52:53.938Z,4.72
2023-03-28T08:55:29.232Z,3.03
2023-03-28T08:57:56.364Z,4.80
2023-03-28T09:00:26.758Z,4.90
2023-03-28T09:02:53.628Z,5.93
2023-03-28T09:05:28.748Z,3.28
2023-03-28T09:08:02.232Z,4.85
2023-03-28T09:10:38.161Z,3.97
2023-03-28T09:13:17.643Z,3.28
2023-03-28T09:15:57.073Z,4.03
2023-03-28T09:18:40.044Z,4.57
2023-03-28T09:21:16.708Z,4.93
2023-03-28T09:24:02.566Z,5.20
2023-03-28T09:26:34.864Z,4.22
2023-03-28T09:29:04.279Z,3.70
2023-03-28T09:31:35.350Z,2.28
2023-03-28T09:34:03.314Z,3.05
2023-03-28T09:36:45.459Z,2.60
2023-03-28T09:39:23.835Z,4.05
2023-03-28T09:41:56.872Z,5.53
2023-03-28T09:44:29.276Z,3.50
2023-03-28T09:46:58.547Z,10.00
2023-03-28T09:49:26.236Z,3.15
2023-03-28T09:51:55.089Z,3.95
2023-03-28T09:54:28.321Z,4.18
2023-03-28T09:56:59.938Z,2.60
2023-03-28T09:59:28.896Z,3.22
2023-03-28T10:01:56.949Z,7.40
2023-03-28T10:04:33.209Z,3.92
2023-03-28T10:07:27.046Z,3.47
2023-03-28T10:09:56.897Z,3.63
2023-03-28T10:12:26.290Z,4.80
2023-03-28T10:14:53.275Z,3.97
2023-03-28T10:17:27.926Z,3.28
2023-03-28T10:19:59.837Z,3.75
2023-03-28T10:22:30.375Z,4.63
2023-03-28T10:24:59.294Z,7.20
2023-03-28T10:27:29.981Z,3.08
2023-03-28T10:29:58.565Z,4.35
2023-03-28T10:32:27.499Z,4.60
2023-03-28T10:35:02.261Z,10.07
2023-03-28T10:37:30.884Z,4.78
2023-03-28T10:40:05.673Z,2.28
2023-03-28T10:42:43.262Z,4.75
2023-03-28T10:45:21.246Z,4.72
2023-03-28T10:47:50.258Z,3.47
2023-03-28T10:50:26.253Z,2.50
2023-03-28T10:53:01.294Z,3.13
2023-03-28T10:55:36.309Z,4.78
2023-03-28T10:58:10.680Z,3.30
2023-03-28T11:00:42.351Z,3.88
2023-03-28T11:03:19.954Z,2.40
2023-03-28T11:06:08.009Z,2.58
2023-03-28T11:08:42.968Z,4.47
2023-03-28T11:11:34.678Z,4.03
2023-03-28T11:14:07.728Z,2.20
2023-03-28T11:16:43.509Z,2.45
2023-03-28T11:19:19.033Z,5.60
2023-03-28T11:21:54.178Z,3.72
2023-03-28T11:24:30.032Z,4.63
2023-03-28T11:27:14.897Z,3.47
2023-03-28T11:29:46.913Z,2.45
2023-03-28T11:32:18.308Z,4.82
2023-03-28T11:34:50.183Z,3.75
2023-03-28T11:37:20.323Z,5.25
2023-03-28T11:39:52.858Z,4.65
2023-03-28T11:42:28.914Z,3.75
2023-03-28T11:45:02.492Z,4.68
2023-03-28T11:47:36.339Z,2.00
2023-03-28T11:50:08.832Z,3.13
2023-03-28T11:52:39.813Z,4.55
2023-03-28T11:55:16.913Z,5.63
2023-03-28T11:57:53.676Z,2.63
2023-03-28T12:00:33.963Z,4.72
2023-03-28T12:03:12.304Z,2.70
2023-03-28T12:05:44.277Z,4.53
2023-03-28T12:08:15.576Z,3.42
2023-03-28T12:10:45.865Z,2.60
2023-03-28T12:13:20.346Z,5.55
2023-03-28T12:15:50.632Z,2.83
2023-03-28T12:18:25.379Z,3.22
2023-03-28T12:20:59.539Z,4.25
2023-03-28T12:23:35.979Z,3.83
2023-03-28T12:26:14.078Z,2.42
2023-03-28T12:28:44.947Z,3.55
2023-03-28T12:31:18.963Z,3.88
2023-03-28T12:33:58.740Z,2.13
2023-03-28T12:36:31.805Z,4.18
2023-03-28T12:39:03.428Z,4.75
2023-03-28T12:41:35.317Z,8.88
2023-03-28T12:44:07.350Z,3.05
2023-03-28T12:46:38.578Z,2.80
2023-03-28T12:49:10.861Z,2.97
2023-03-28T12:51:41.039Z,3.42
2023-03-28T12:54:21.234Z,4.00
2023-03-28T12:57:00.639Z,3.33
2023-03-28T12:59:49.091Z,4.55
2023-03-28T13:02:23.563Z,4.53
2023-03-28T13:04:55.552Z,4.40
2023-03-28T13:07:28.508Z,2.97
2023-03-28T13:10:04.325Z,5.07
2023-03-28T13:12:48.117Z,2.38
2023-03-28T13:15:32.687Z,4.35
2023-03-28T13:18:25.588Z,4.50
2023-03-28T13:20:52.951Z,3.83
2023-03-28T13:23:26.970Z,4.03
2023-03-28T13:28:40.528Z,2.72
2023-03-28T13:31:11.729Z,3.53
2023-03-28T13:33:44.918Z,3.60
2023-03-28T13:36:18.327Z,5.13
2023-03-28T13:38:46.946Z,2.55
2023-03-28T13:41:32.694Z,3.35
2023-03-28T13:44:01.477Z,2.47
2023-03-28T13:46:33.664Z,3.15
2023-03-28T13:49:05.449Z,3.58
2023-03-28T13:51:39.617Z,2.33
2023-03-28T13:54:09.105Z,2.75
2023-03-28T13:56:36.529Z,3.25
2023-03-28T13:59:06.813Z,3.35
2023-03-28T14:01:41.656Z,3.33
2023-03-28T14:04:16.327Z,3.90
2023-03-28T14:06:43.177Z,3.67
2023-03-28T14:09:14.441Z,3.83
2023-03-28T14:11:42.933Z,2.38
2023-03-28T14:14:13.859Z,3.35
2023-03-28T14:16:45.132Z,3.28
2023-03-28T14:19:19.550Z,3.20
2023-03-28T14:21:47.659Z,4.80
2023-03-28T14:24:20.211Z,3.28
2023-03-28T14:26:47.042Z,4.80
2023-03-28T14:29:16.460Z,3.25
2023-03-28T14:31:46.518Z,2.22
2023-03-28T14:34:21.556Z,3.35
2023-03-28T14:36:59.673Z,4.95
2023-03-28T14:39:28.217Z,2.95
2023-03-28T14:41:55.977Z,4.00
2023-03-28T14:44:23.942Z,3.20
2023-03-28T14:46:55.970Z,3.55
2023-03-28T14:49:25.288Z,5.20
2023-03-28T14:51:58.666Z,3.00
2023-03-28T14:54:29.395Z,2.83
2023-03-28T14:56:58.196Z,4.68
2023-03-28T14:59:33.559Z,2.85
2023-03-28T15:02:03.889Z,3.75
2023-03-28T15:04:31.619Z,2.25
2023-03-28T15:06:58.551Z,5.75
2023-03-28T15:09:31.898Z,3.17
2023-03-28T15:12:03.264Z,5.43
2023-03-28T15:14:37.269Z,6.75
2023-03-28T15:19:36.036Z,2.67
2023-03-28T15:22:05.183Z,2.67
2023-03-28T15:24:32.384Z,3.63
2023-03-28T15:27:01.246Z,4.93
2023-03-28T15:29:31.145Z,3.35
2023-03-28T15:32:02.628Z,6.60
2023-03-28T15:34:41.417Z,4.00
2023-03-28T15:37:15.726Z,4.38
2023-03-28T15:39:42.571Z,4.97
2023-03-28T15:42:32.578Z,5.45
2023-03-28T15:45:20.754Z,4.80
2023-03-28T15:47:49.755Z,4.20
2023-03-28T15:50:25.828Z,3.80
2023-03-28T15:52:56.958Z,2.30
2023-03-28T15:55:25.700Z,3.83
2023-03-28T15:57:52.684Z,2.85
2023-03-28T16:00:41.223Z,5.35
2023-03-28T16:03:18.103Z,3.80
2023-03-28T16:05:50.750Z,5.10
2023-03-28T16:08:22.854Z,4.07
2023-03-28T16:10:49.699Z,5.38
2023-03-28T16:13:17.664Z,4.80
2023-03-28T16:15:44.599Z,3.47
2023-03-28T16:18:11.522Z,5.88
2023-03-28T16:20:38.499Z,3.42
2023-03-28T16:23:06.661Z,3.08
2023-03-28T16:25:33.592Z,4.75
2023-03-28T16:28:00.467Z,3.72
2023-03-28T16:30:30.496Z,5.03
2023-03-28T16:32:57.419Z,4.03
2023-03-28T16:35:24.343Z,3.13
2023-03-28T16:37:51.094Z,2.97
2023-03-28T16:40:19.264Z,4.75
2023-03-28T16:42:46.040Z,3.05
2023-03-28T16:45:13.090Z,4.35
2023-03-28T16:47:40.120Z,3.85
2023-03-28T16:50:08.615Z,3.70
2023-03-28T16:52:35.694Z,2.40
2023-03-28T16:55:02.413Z,5.70
2023-03-28T16:57:30.523Z,3.13
2023-03-28T16:59:57.363Z,5.72
2023-03-28T17:02:25.930Z,3.08
2023-03-28T17:04:52.750Z,4.13
2023-03-28T17:07:19.581Z,4.75
2023-03-28T17:09:46.512Z,2.58
2023-03-28T17:12:13.339Z,6.32
2023-03-28T17:14:41.476Z,4.72
2023-03-28T17:17:08.376Z,4.47
2023-03-28T17:19:35.172Z,6.05
2023-03-28T17:22:01.956Z,4.68
2023-03-28T17:24:28.742Z,5.25
2023-03-28T17:26:55.767Z,3.95
2023-03-28T17:29:22.548Z,5.40
2023-03-28T17:31:50.668Z,6.35
2023-03-28T17:34:17.488Z,4.70
2023-03-28T17:36:44.390Z,5.60
2023-03-28T17:39:11.563Z,5.40
2023-03-28T17:41:38.283Z,4.25
2023-03-28T17:44:05.524Z,6.82
2023-03-28T17:46:32.352Z,4.03
2023-03-28T17:49:00.488Z,5.50
2023-03-28T17:51:27.406Z,4.38
2023-03-28T17:53:54.532Z,5.43
2023-03-28T17:56:21.454Z,3.60
2023-03-28T17:58:48.202Z,6.38
2023-03-28T18:01:16.903Z,5.05
2023-03-28T18:03:43.896Z,5.18
2023-03-28T18:06:12.926Z,6.35
2023-03-28T18:08:40.104Z,7.32
2023-03-28T18:11:09.602Z,6.63
2023-03-28T18:13:37.623Z,5.28
2023-03-28T18:16:07.014Z,7.18
2023-03-28T18:18:33.824Z,4.50
2023-03-28T18:21:00.601Z,3.03
2023-03-28T18:23:28.756Z,5.68
2023-03-28T18:25:55.534Z,11.77
2023-03-28T18:28:22.372Z,11.27
2023-03-28T18:30:49.444Z,8.30
2023-03-28T18:33:16.313Z,3.47
2023-03-28T18:35:45.026Z,6.10
2023-03-28T18:38:12.006Z,5.78
2023-03-28T18:40:40.494Z,4.15
2023-03-28T18:43:07.404Z,4.20
2023-03-28T18:45:34.675Z,4.35
2023-03-28T18:48:01.495Z,4.00
2023-03-28T18:50:28.334Z,4.63
2023-03-28T18:52:55.156Z,4.60
2023-03-28T18:55:22.052Z,4.20
2023-03-28T18:57:50.122Z,7.35
2023-03-28T19:00:17.825Z,5.25
2023-03-28T19:02:44.804Z,7.20
2023-03-28T19:05:11.814Z,5.60
2023-03-28T19:07:38.644Z,7.43
2023-03-28T19:10:06.472Z,9.05
2023-03-28T19:12:35.488Z,6.22
2023-03-28T19:15:04.074Z,6.10
2023-03-28T19:17:33.023Z,5.13
2023-03-28T19:19:59.831Z,5.90
2023-03-28T19:22:26.640Z,7.40
2023-03-28T19:24:53.367Z,7.47
2023-03-28T19:27:20.120Z,9.57
2023-03-28T19:29:47.014Z,6.38
2023-03-28T19:32:15.105Z,8.30
2023-03-28T19:34:41.830Z,8.07
2023-03-28T19:37:08.620Z,7.18
2023-03-28T19:39:35.371Z,7.82
2023-03-28T19:42:02.097Z,5.22
2023-03-28T19:44:28.832Z,4.50
2023-03-28T19:46:55.620Z,7.38
2023-03-28T19:49:23.748Z,10.65
2023-03-28T19:51:50.600Z,6.82
2023-03-28T19:54:17.539Z,5.25
2023-03-28T19:56:44.323Z,5.45
2023-03-28T19:59:11.095Z,5.53
2023-03-28T20:01:37.973Z,5.38
2023-03-28T20:04:05.160Z,11.60
2023-03-28T20:06:33.420Z,5.95
2023-03-28T20:09:00.148Z,5.60
2023-03-28T20:11:26.951Z,4.53
2023-03-28T20:13:53.704Z,7.15
2023-03-28T20:16:20.587Z,6.47
2023-03-28T20:18:47.345Z,5.55
2023-03-28T20:21:14.312Z,4.90
2023-03-28T20:23:42.440Z,4.28
2023-03-28T20:26:14.714Z,8.65
2023-03-28T20:28:41.466Z,4.45
2023-03-28T20:31:10.833Z,6.85
2023-03-28T20:33:37.656Z,5.20
2023-03-28T20:36:05.147Z,4.55
2023-03-28T20:38:31.964Z,5.20
2023-03-28T20:41:00.323Z,3.97
2023-03-28T20:43:27.402Z,4.32
2023-03-28T20:45:55.215Z,5.70
2023-03-28T20:48:22.638Z,4.28
2023-03-28T20:50:50.762Z,5.30
2023-03-28T20:53:17.511Z,4.10
2023-03-28T20:55:44.247Z,4.05
2023-03-28T20:58:12.345Z,4.88
2023-03-28T21:00:39.102Z,4.38
2023-03-28T21:03:05.974Z,5.65
2023-03-28T21:05:32.820Z,4.40
2023-03-28T21:07:59.525Z,3.97
2023-03-28T21:10:26.276Z,4.45
2023-03-28T21:12:53.060Z,4.97
2023-03-28T21:15:21.195Z,4.32
2023-03-28T21:17:47.951Z,3.60
2023-03-28T21:20:14.806Z,2.97
2023-03-28T21:22:41.598Z,4.20
2023-03-28T21:25:09.258Z,3.03
2023-03-28T21:27:36.152Z,4.57
2023-03-28T21:30:03.391Z,3.67
2023-03-28T21:32:31.501Z,3.95
2023-03-28T21:34:58.293Z,4.43
2023-03-28T21:37:25.183Z,4.50
2023-03-28T21:39:52.239Z,3.80
2023-03-28T21:42:19.042Z,4.32
2023-03-28T21:44:45.864Z,7.25
2023-03-28T21:47:12.608Z,4.82
2023-03-28T21:49:40.896Z,3.35
2023-03-28T21:52:07.622Z,4.88
2023-03-28T21:54:34.523Z,6.95
2023-03-28T21:57:01.303Z,3.30
2023-03-28T21:59:28.081Z,3.75
2023-03-28T22:01:54.915Z,3.42
2023-03-28T22:04:21.821Z,3.50
2023-03-28T22:06:50.231Z,3.28
2023-03-28T22:09:16.975Z,3.85
2023-03-28T22:11:43.871Z,5.35
2023-03-28T22:14:10.906Z,2.63
2023-03-28T22:16:38.892Z,3.30
2023-03-28T22:19:06.786Z,2.38
2023-03-28T22:21:34.225Z,2.53
2023-03-28T22:24:02.926Z,2.67
2023-03-28T22:26:30.325Z,3.55
2023-03-28T22:28:57.686Z,3.15
2023-03-28T22:31:24.898Z,3.60
2023-03-28T22:33:52.015Z,2.28
2023-03-28T22:36:18.867Z,5.18
2023-03-28T22:38:46.209Z,3.22
2023-03-28T22:41:14.602Z,2.63
2023-03-28T22:43:41.357Z,6.00
2023-03-28T22:46:08.699Z,2.47
2023-03-28T22:48:35.457Z,4.30
2023-03-28T22:51:02.424Z,3.47
2023-03-28T22:53:29.512Z,2.58
2023-03-28T22:55:56.497Z,2.58
2023-03-28T22:58:24.752Z,2.60
2023-03-28T23:00:51.844Z,2.65
2023-03-28T23:03:18.631Z,2.42
2023-03-28T23:05:45.527Z,2.83
2023-03-28T23:08:12.393Z,3.03
2023-03-28T23:10:39.285Z,1.83
2023-03-28T23:13:06.462Z,2.15
2023-03-28T23:15:34.824Z,2.58
2023-03-28T23:18:01.684Z,2.22
2023-03-28T23:20:28.573Z,1.98
2023-03-28T23:22:55.504Z,4.03
2023-03-28T23:25:22.555Z,3.80
2023-03-28T23:27:49.691Z,3.10
2023-03-28T23:30:17.052Z,2.20
2023-03-28T23:32:45.350Z,2.22
2023-03-28T23:35:12.349Z,3.30
2023-03-28T23:37:39.942Z,2.00
2023-03-28T23:40:08.550Z,3.50
2023-03-28T23:42:35.356Z,3.45
2023-03-28T23:45:02.233Z,3.25
2023-03-28T23:47:29.049Z,4.03
2023-03-28T23:49:57.180Z,5.38
2023-03-28T23:52:24.017Z,4.00
2023-03-28T23:54:50.838Z,2.90
2023-03-28T23:57:17.772Z,2.42
2023-03-28T23:59:44.694Z,2.97
